Time;durP1;ratioP1;P1;durP2;ratioP2;P2;SDS_P1;SDS_P2;PMS_P1;PMS_P2;Temp;Humidity;BMP_temperature;BMP_pressure;BME280_temperature;BME280_humidity;BME280_pressure;Samples;Min_cycle;Max_cycle;Signal;HPM_P1;HPM_P2
2021/10/06 00:01:37;;;;;;;6.50;5.87;;;19.70;99.90;;;;;;5072474;28;20445;-47
2021/10/06 00:04:05;;;;;;;6.40;5.83;;;19.70;99.90;;;;;;5078829;28;20418;-53
2021/10/06 00:06:33;;;;;;;7.13;6.43;;;19.80;99.90;;;;;;5081024;28;20670;-48
2021/10/06 00:08:59;;;;;;;6.77;6.17;;;19.90;99.90;;;;;;5080076;28;20454;-47
2021/10/06 00:11:27;;;;;;;9.03;6.90;;;19.80;99.90;;;;;;5065830;28;20407;-48
2021/10/06 00:13:54;;;;;;;7.63;6.90;;;19.30;99.90;;;;;;5073018;28;20510;-50
2021/10/06 00:16:22;;;;;;;8.67;7.10;;;19.00;99.90;;;;;;5064861;28;20770;-46
2021/10/06 00:18:49;;;;;;;7.67;6.80;;;19.30;99.90;;;;;;5067080;28;20671;-47
2021/10/06 00:21:17;;;;;;;7.10;6.50;;;19.30;99.90;;;;;;5080869;28;20792;-47
2021/10/06 00:23:44;;;;;;;6.90;6.30;;;19.60;99.90;;;;;;5073268;28;20441;-51
2021/10/06 00:26:11;;;;;;;5.67;5.17;;;19.70;99.90;;;;;;5068316;28;20418;-45
2021/10/06 00:28:38;;;;;;;7.10;6.33;;;19.80;99.90;;;;;;5078300;28;20834;-52
2021/10/06 00:31:05;;;;;;;6.70;6.17;;;19.90;99.90;;;;;;5072107;28;20402;-45
2021/10/06 00:33:32;;;;;;;7.13;6.43;;;19.60;99.90;;;;;;5074366;28;20554;-45
2021/10/06 00:35:59;;;;;;;6.50;5.87;;;19.40;99.90;;;;;;5072231;28;20411;-44
2021/10/06 00:38:26;;;;;;;7.20;6.60;;;19.50;99.90;;;;;;5063720;28;20514;-51
2021/10/06 00:40:54;;;;;;;6.33;5.73;;;19.60;99.90;;;;;;5065007;28;20506;-51
2021/10/06 00:43:22;;;;;;;6.97;6.10;;;19.60;99.90;;;;;;5064543;28;20441;-44
2021/10/06 00:45:50;;;;;;;8.57;6.37;;;19.60;99.90;;;;;;5072930;28;20440;-44
2021/10/06 00:48:17;;;;;;;6.83;6.17;;;19.60;99.90;;;;;;5064129;28;20429;-46
2021/10/06 00:50:45;;;;;;;8.07;7.27;;;19.40;99.90;;;;;;5071453;28;20668;-47
2021/10/06 00:53:12;;;;;;;7.13;6.50;;;19.20;99.90;;;;;;5063503;28;20790;-44
2021/10/06 00:55:40;;;;;;;7.37;6.60;;;19.10;99.90;;;;;;5069249;28;20500;-44
2021/10/06 00:58:08;;;;;;;7.40;6.40;;;19.10;99.90;;;;;;5063880;28;20804;-44
2021/10/06 01:00:35;;;;;;;7.60;6.53;;;19.30;99.90;;;;;;5063822;28;20421;-45
2021/10/06 01:03:03;;;;;;;8.70;6.97;;;19.40;99.90;;;;;;5069009;28;20786;-45
2021/10/06 01:05:30;;;;;;;7.63;6.83;;;19.40;99.90;;;;;;5062159;28;20477;-45
2021/10/06 01:07:59;;;;;;;9.57;6.97;;;19.50;99.90;;;;;;5080633;28;20677;-45
2021/10/06 01:10:27;;;;;;;8.90;7.20;;;19.60;99.90;;;;;;5075146;28;20462;-51
2021/10/06 01:12:54;;;;;;;8.33;7.40;;;19.60;99.90;;;;;;5080445;28;20513;-50
2021/10/06 01:15:23;;;;;;;7.73;6.83;;;19.60;99.90;;;;;;5070063;28;20443;-44
2021/10/06 01:17:50;;;;;;;8.80;7.60;;;19.70;99.90;;;;;;5069091;28;20405;-45
2021/10/06 01:20:18;;;;;;;6.23;5.63;;;19.70;99.90;;;;;;5068854;28;20490;-47
2021/10/06 01:22:46;;;;;;;7.30;6.43;;;19.60;99.90;;;;;;5073520;28;20466;-46
2021/10/06 01:25:15;;;;;;;7.63;6.83;;;19.50;99.90;;;;;;5070288;28;20790;-49
2021/10/06 01:27:43;;;;;;;8.43;7.00;;;19.40;99.90;;;;;;5073507;28;20658;-47
2021/10/06 01:30:12;;;;;;;9.30;7.00;;;19.50;99.90;;;;;;5079813;28;20453;-46
2021/10/06 01:32:41;;;;;;;6.97;5.70;;;19.50;99.90;;;;;;5073275;28;20448;-44
2021/10/06 01:35:10;;;;;;;8.17;7.10;;;19.60;99.90;;;;;;5078077;28;20405;-46
2021/10/06 01:37:38;;;;;;;7.43;6.77;;;19.70;99.90;;;;;;5074804;28;20432;-44
2021/10/06 01:40:08;;;;;;;8.60;7.80;;;19.70;99.90;;;;;;5060174;28;20422;-44
2021/10/06 01:42:36;;;;;;;7.30;6.67;;;19.50;99.90;;;;;;5060500;28;20693;-48
2021/10/06 01:45:03;;;;;;;12.30;7.90;;;19.40;99.90;;;;;;5074445;28;20435;-45
2021/10/06 01:47:31;;;;;;;6.77;6.23;;;19.20;99.90;;;;;;5062262;28;20462;-48
2021/10/06 01:49:59;;;;;;;7.47;6.77;;;18.70;99.90;;;;;;5064203;28;20604;-50
2021/10/06 01:52:27;;;;;;;8.80;7.70;;;18.40;99.90;;;;;;5078958;28;20455;-46
2021/10/06 01:54:54;;;;;;;11.03;8.50;;;18.20;99.90;;;;;;5080125;28;20490;-54
2021/10/06 01:57:22;;;;;;;10.97;8.70;;;18.00;99.90;;;;;;5068389;28;20399;-48
2021/10/06 01:59:49;;;;;;;9.97;8.97;;;17.90;99.90;;;;;;5068479;28;20467;-52
2021/10/06 02:02:19;;;;;;;13.67;9.87;;;17.80;99.90;;;;;;5075408;28;20544;-44
2021/10/06 02:04:46;;;;;;;9.33;8.17;;;17.80;99.90;;;;;;5074951;28;20436;-44
2021/10/06 02:07:14;;;;;;;12.20;10.67;;;17.70;99.90;;;;;;5064841;28;20445;-46
2021/10/06 02:09:41;;;;;;;12.63;11.40;;;17.80;99.90;;;;;;5066828;28;20516;-46
2021/10/06 02:12:08;;;;;;;13.90;11.13;;;17.50;99.90;;;;;;5062191;28;20495;-49
2021/10/06 02:14:35;;;;;;;11.83;10.50;;;17.30;99.90;;;;;;5073712;28;20409;-48
2021/10/06 02:17:03;;;;;;;13.07;10.87;;;17.30;99.90;;;;;;5063206;28;20669;-48
2021/10/06 02:19:30;;;;;;;11.40;9.97;;;17.20;99.90;;;;;;5076191;28;20524;-48
2021/10/06 02:21:57;;;;;;;12.97;11.60;;;17.20;99.90;;;;;;5062722;28;20434;-48
2021/10/06 02:24:24;;;;;;;14.97;10.53;;;17.20;99.90;;;;;;5074742;28;20413;-47
2021/10/06 02:26:52;;;;;;;13.43;9.77;;;17.30;99.90;;;;;;5072401;28;20667;-44
2021/10/06 02:29:19;;;;;;;11.43;10.23;;;17.40;99.90;;;;;;5074405;28;20440;-49
2021/10/06 02:31:46;;;;;;;12.70;8.57;;;17.50;99.90;;;;;;5062275;28;20732;-43
2021/10/06 02:34:13;;;;;;;11.60;9.00;;;17.30;99.90;;;;;;5069969;28;20411;-50
2021/10/06 02:36:40;;;;;;;10.97;9.60;;;17.20;99.90;;;;;;5079866;28;20409;-45
2021/10/06 02:39:08;;;;;;;11.50;8.27;;;17.10;99.90;;;;;;5077747;28;20738;-50
2021/10/06 02:41:35;;;;;;;9.63;8.47;;;17.10;99.90;;;;;;5061590;28;20732;-49
2021/10/06 02:44:03;;;;;;;8.77;7.90;;;17.00;99.90;;;;;;5067625;28;20639;-50
2021/10/06 02:46:31;;;;;;;11.87;9.33;;;16.80;99.90;;;;;;5065596;28;20423;-47
2021/10/06 02:48:58;;;;;;;8.63;7.73;;;16.60;99.90;;;;;;5070443;28;20601;-45
2021/10/06 02:51:25;;;;;;;11.87;9.33;;;16.40;99.90;;;;;;5071096;28;20643;-49
2021/10/06 02:53:53;;;;;;;15.37;10.33;;;16.20;99.90;;;;;;5066510;28;20497;-49
2021/10/06 02:56:20;;;;;;;11.53;10.10;;;16.30;99.90;;;;;;5071780;28;20451;-42
2021/10/06 02:58:47;;;;;;;10.80;8.43;;;16.40;99.90;;;;;;5067532;28;20626;-52
2021/10/06 03:01:15;;;;;;;9.40;8.40;;;16.30;99.90;;;;;;5081213;28;20546;-43
2021/10/06 03:03:42;;;;;;;13.30;9.90;;;16.20;99.90;;;;;;5068981;28;20508;-44
2021/10/06 03:06:09;;;;;;;9.73;8.73;;;16.20;99.90;;;;;;5079808;28;20419;-48
2021/10/06 03:08:37;;;;;;;10.90;9.23;;;16.30;99.90;;;;;;5068209;28;20466;-47
2021/10/06 03:11:04;;;;;;;10.33;8.97;;;16.20;99.90;;;;;;5075910;28;20460;-52
2021/10/06 03:13:32;;;;;;;10.30;8.20;;;16.10;99.90;;;;;;5071270;28;20441;-46
2021/10/06 03:15:59;;;;;;;11.73;8.77;;;15.90;99.90;;;;;;5077613;28;20412;-45
2021/10/06 03:18:27;;;;;;;11.53;8.60;;;15.80;99.90;;;;;;5063478;28;20814;-46
2021/10/06 03:20:54;;;;;;;10.15;7.22;;;15.70;99.90;;;;;;5065751;28;20775;-50
2021/10/06 03:23:22;;;;;;;7.50;6.80;;;15.80;99.90;;;;;;5067943;28;20228;-52
2021/10/06 03:25:49;;;;;;;6.63;5.77;;;15.80;99.90;;;;;;5078047;28;20444;-45
2021/10/06 03:28:17;;;;;;;6.40;5.57;;;15.80;99.90;;;;;;5083355;28;20472;-47
2021/10/06 03:30:44;;;;;;;5.20;4.70;;;15.60;99.90;;;;;;5069349;28;20554;-47
2021/10/06 03:33:12;;;;;;;4.68;4.18;;;15.60;99.90;;;;;;5063435;28;20432;-49
2021/10/06 03:35:39;;;;;;;5.18;4.57;;;15.50;99.90;;;;;;5075450;28;20195;-44
2021/10/06 03:38:07;;;;;;;4.22;3.92;;;15.50;99.90;;;;;;5073515;28;20199;-46
2021/10/06 03:40:34;;;;;;;4.38;4.07;;;15.40;99.90;;;;;;5077625;28;20205;-43
2021/10/06 03:43:01;;;;;;;6.90;4.77;;;15.50;99.90;;;;;;5066658;28;20219;-45
2021/10/06 03:45:29;;;;;;;7.55;4.50;;;15.50;99.90;;;;;;5068567;28;20440;-48
2021/10/06 03:47:56;;;;;;;5.00;4.03;;;15.60;99.90;;;;;;5065643;28;20247;-43
2021/10/06 03:50:23;;;;;;;5.75;4.45;;;15.70;99.90;;;;;;5071276;28;20253;-49
2021/10/06 03:52:50;;;;;;;4.63;3.67;;;15.60;99.90;;;;;;5074909;28;20208;-48
2021/10/06 03:55:18;;;;;;;6.27;3.90;;;15.60;99.90;;;;;;5068490;28;20234;-45
2021/10/06 03:57:45;;;;;;;5.63;4.30;;;15.60;99.90;;;;;;5075170;28;20797;-44
2021/10/06 04:00:13;;;;;;;4.57;4.18;;;15.70;99.90;;;;;;5076847;28;20456;-44
2021/10/06 04:02:41;;;;;;;5.55;3.85;;;15.70;99.90;;;;;;5074301;28;20258;-47
2021/10/06 04:05:09;;;;;;;3.50;3.20;;;15.90;99.90;;;;;;5072018;28;20205;-49
2021/10/06 04:07:36;;;;;;;4.18;3.83;;;16.00;99.90;;;;;;5069344;28;20255;-46
2021/10/06 04:10:05;;;;;;;3.63;3.33;;;15.90;99.90;;;;;;5064692;28;20257;-47
2021/10/06 04:12:33;;;;;;;6.70;4.37;;;16.00;99.90;;;;;;5076084;28;20471;-46
2021/10/06 04:15:00;;;;;;;4.80;3.60;;;15.90;99.90;;;;;;5072664;28;20642;-45
2021/10/06 04:17:27;;;;;;;5.50;4.30;;;16.10;99.90;;;;;;5068290;28;20441;-48
2021/10/06 04:19:55;;;;;;;4.43;3.88;;;16.10;99.90;;;;;;5065713;28;20454;-43
2021/10/06 04:22:22;;;;;;;4.87;4.37;;;16.40;99.90;;;;;;5065998;28;20224;-48
2021/10/06 04:24:50;;;;;;;4.30;3.67;;;16.40;99.90;;;;;;5068259;28;20897;-49
2021/10/06 04:27:16;;;;;;;4.30;3.90;;;16.50;99.90;;;;;;5063997;28;20804;-45
2021/10/06 04:29:44;;;;;;;4.90;3.65;;;16.50;99.90;;;;;;5071785;28;20227;-46
2021/10/06 04:32:11;;;;;;;5.27;4.30;;;16.30;99.90;;;;;;5063760;28;20478;-44
2021/10/06 04:34:38;;;;;;;4.55;4.10;;;16.40;99.90;;;;;;5079998;28;20407;-48
2021/10/06 04:37:05;;;;;;;5.03;4.50;;;16.50;99.90;;;;;;5073051;28;20201;-49
2021/10/06 04:39:32;;;;;;;5.40;4.83;;;16.40;99.90;;;;;;5083854;28;20289;-47
2021/10/06 04:41:59;;;;;;;5.90;4.20;;;16.30;99.90;;;;;;5067593;28;20514;-47
2021/10/06 04:44:26;;;;;;;5.13;4.63;;;16.20;99.90;;;;;;5061922;28;20461;-48
2021/10/06 04:46:53;;;;;;;5.90;3.70;;;16.20;99.90;;;;;;5068304;28;20504;-53
2021/10/06 04:49:20;;;;;;;7.75;5.20;;;16.20;99.90;;;;;;5075548;28;20200;-45
2021/10/06 04:51:47;;;;;;;5.85;4.85;;;16.20;99.90;;;;;;5069434;28;20244;-47
2021/10/06 04:54:15;;;;;;;6.22;5.32;;;16.30;99.90;;;;;;5074408;28;20249;-47
2021/10/06 04:56:42;;;;;;;4.80;4.40;;;16.40;99.90;;;;;;5075107;28;20498;-50
2021/10/06 04:59:09;;;;;;;9.93;6.20;;;16.40;99.90;;;;;;5071519;28;20437;-48
2021/10/06 05:01:37;;;;;;;5.70;5.10;;;16.50;99.90;;;;;;5068777;28;20421;-53
2021/10/06 05:04:06;;;;;;;6.93;6.13;;;16.60;99.90;;;;;;5077997;28;20424;-46
2021/10/06 05:06:33;;;;;;;6.10;5.50;;;16.50;99.90;;;;;;5077799;28;20610;-45
2021/10/06 05:09:00;;;;;;;7.63;6.95;;;16.40;99.90;;;;;;5078448;28;21261;-47
2021/10/06 05:11:29;;;;;;;6.55;5.95;;;16.30;99.90;;;;;;5073972;28;20280;-51
2021/10/06 05:13:58;;;;;;;10.30;7.97;;;16.40;99.90;;;;;;5066399;28;20270;-49
2021/10/06 05:16:26;;;;;;;8.07;6.50;;;16.60;99.90;;;;;;5076786;28;20483;-51
2021/10/06 05:18:53;;;;;;;7.85;6.95;;;16.60;99.90;;;;;;5069127;28;20495;-53
2021/10/06 05:21:20;;;;;;;8.23;7.07;;;16.70;99.90;;;;;;5066199;28;20200;-51
2021/10/06 05:23:47;;;;;;;7.03;6.33;;;16.70;99.90;;;;;;5067465;28;20449;-50
2021/10/06 05:26:14;;;;;;;12.23;6.60;;;16.70;99.90;;;;;;5083641;28;20473;-45
2021/10/06 05:28:41;;;;;;;6.30;5.60;;;16.80;99.90;;;;;;5074413;28;20416;-47
2021/10/06 05:31:09;;;;;;;5.63;5.03;;;16.70;99.90;;;;;;5068041;28;20476;-43
2021/10/06 05:33:36;;;;;;;6.10;5.50;;;16.60;99.90;;;;;;5065577;28;20427;-47
2021/10/06 05:36:05;;;;;;;8.07;6.77;;;16.60;99.90;;;;;;5068558;28;20200;-45
2021/10/06 05:38:32;;;;;;;8.70;6.13;;;16.60;99.90;;;;;;5068375;28;20756;-50
2021/10/06 05:40:59;;;;;;;9.40;7.10;;;16.70;99.90;;;;;;5070343;28;20704;-48
2021/10/06 05:43:26;;;;;;;13.33;6.93;;;16.70;99.90;;;;;;5077769;28;20696;-44
2021/10/06 05:45:54;;;;;;;7.40;6.33;;;16.70;99.90;;;;;;5071365;28;20437;-53
2021/10/06 05:48:21;;;;;;;9.53;6.17;;;16.80;99.90;;;;;;5076395;28;20455;-48
2021/10/06 05:50:48;;;;;;;10.20;6.93;;;16.80;99.90;;;;;;5073228;28;20516;-45
2021/10/06 05:53:15;;;;;;;7.55;6.68;;;16.60;99.90;;;;;;5068252;28;20215;-49
2021/10/06 05:55:42;;;;;;;8.20;5.77;;;16.50;99.90;;;;;;5076282;28;20395;-40
2021/10/06 05:58:10;;;;;;;8.75;7.20;;;16.60;99.90;;;;;;5070181;28;20418;-46
2021/10/06 06:00:37;;;;;;;9.20;6.70;;;16.50;99.90;;;;;;5074570;28;20503;-50
2021/10/06 06:03:08;;;;;;;8.67;7.73;;;16.70;99.90;;;;;;5072704;28;20441;-46
2021/10/06 06:05:38;;;;;;;10.20;7.47;;;16.70;99.90;;;;;;5073257;28;20411;-52
2021/10/06 06:08:07;;;;;;;7.00;6.30;;;16.70;99.90;;;;;;5072124;28;20421;-47
2021/10/06 06:10:34;;;;;;;7.43;6.20;;;16.90;99.90;;;;;;5073504;28;20465;-49
2021/10/06 06:13:02;;;;;;;7.47;6.83;;;17.10;99.90;;;;;;5072660;28;20440;-47
2021/10/06 06:15:29;;;;;;;7.30;6.60;;;17.10;99.90;;;;;;5073214;28;20622;-49
2021/10/06 06:17:57;;;;;;;7.37;6.60;;;17.10;99.90;;;;;;5073517;28;20406;-51
2021/10/06 06:20:24;;;;;;;9.60;8.27;;;17.00;99.90;;;;;;5074981;28;20409;-44
2021/10/06 06:22:52;;;;;;;10.50;7.10;;;17.10;99.90;;;;;;5068929;28;20451;-50
2021/10/06 06:25:21;;;;;;;8.97;7.70;;;16.80;99.90;;;;;;5067974;28;20446;-49
2021/10/06 06:27:49;;;;;;;9.53;8.40;;;16.90;99.90;;;;;;5077840;28;20458;-47
2021/10/06 06:30:16;;;;;;;9.47;7.10;;;16.90;99.90;;;;;;5067493;28;20452;-51
2021/10/06 06:32:44;;;;;;;9.17;7.03;;;17.00;99.90;;;;;;5063353;28;20446;-50
2021/10/06 06:35:11;;;;;;;9.17;8.27;;;16.90;99.90;;;;;;5077295;28;20441;-42
2021/10/06 06:37:38;;;;;;;10.90;7.60;;;16.60;99.90;;;;;;5069979;28;20419;-47
2021/10/06 06:40:07;;;;;;;10.10;8.20;;;16.70;99.90;;;;;;5079439;28;20665;-45
2021/10/06 06:42:35;;;;;;;9.90;7.73;;;16.70;99.90;;;;;;5078570;28;20629;-43
2021/10/06 06:45:03;;;;;;;9.70;7.87;;;16.60;99.90;;;;;;5077949;28;20437;-50
2021/10/06 06:47:31;;;;;;;9.47;7.90;;;16.60;99.90;;;;;;5078675;28;20411;-51
2021/10/06 06:49:58;;;;;;;9.00;6.90;;;16.60;99.90;;;;;;5075671;28;20533;-48
2021/10/06 06:52:25;;;;;;;8.03;6.80;;;16.50;99.90;;;;;;5078289;28;20437;-44
2021/10/06 06:54:52;;;;;;;9.60;7.65;;;16.70;99.90;;;;;;5078979;28;20435;-48
2021/10/06 06:57:20;;;;;;;7.17;5.80;;;16.90;99.90;;;;;;5077018;28;20267;-45
2021/10/06 06:59:47;;;;;;;9.10;7.07;;;17.00;99.90;;;;;;5077202;28;20448;-45
2021/10/06 07:02:14;;;;;;;8.90;7.30;;;17.10;99.90;;;;;;5078109;28;20709;-45
2021/10/06 07:04:41;;;;;;;9.73;7.10;;;17.00;99.90;;;;;;5075653;28;20404;-45
2021/10/06 07:07:13;;;;;;;5.80;5.20;;;16.90;99.90;;;;;;5078875;28;20797;-44
2021/10/06 07:09:48;;;;;;;10.70;6.23;;;16.80;99.90;;;;;;5076669;28;20746;-47
2021/10/06 07:12:18;;;;;;;6.50;5.90;;;17.20;99.90;;;;;;5077851;28;20643;-46
2021/10/06 07:14:45;;;;;;;6.37;5.30;;;17.40;99.90;;;;;;5060916;28;20783;-46
2021/10/06 07:17:13;;;;;;;6.80;6.10;;;17.50;99.90;;;;;;5062869;28;20747;-51
2021/10/06 07:19:41;;;;;;;6.97;5.73;;;17.50;99.90;;;;;;5072245;28;20500;-45
2021/10/06 07:22:09;;;;;;;9.53;7.10;;;17.60;99.90;;;;;;5069551;28;20457;-47
2021/10/06 07:24:36;;;;;;;5.23;4.73;;;17.50;99.90;;;;;;5069277;28;20436;-48
2021/10/06 07:27:04;;;;;;;6.00;5.40;;;17.60;99.90;;;;;;5063070;28;20472;-51
2021/10/06 07:29:31;;;;;;;8.10;6.37;;;17.60;99.90;;;;;;5076445;28;20866;-45
2021/10/06 07:31:58;;;;;;;5.87;4.80;;;17.60;99.90;;;;;;5062194;28;20486;-50
2021/10/06 07:34:25;;;;;;;6.17;5.57;;;17.80;99.90;;;;;;5066947;28;20485;-46
2021/10/06 07:36:52;;;;;;;5.93;5.33;;;17.90;99.90;;;;;;5082815;28;20598;-47
2021/10/06 07:39:19;;;;;;;5.43;4.93;;;17.80;99.90;;;;;;5079624;28;20479;-45
2021/10/06 07:41:46;;;;;;;6.10;5.50;;;18.00;99.90;;;;;;5064755;28;20774;-46
2021/10/06 07:44:14;;;;;;;5.73;5.20;;;18.00;99.90;;;;;;5069486;28;20447;-49
2021/10/06 07:46:42;;;;;;;6.70;5.97;;;18.20;99.90;;;;;;5063649;28;20443;-40
2021/10/06 07:49:12;;;;;;;6.67;6.07;;;18.10;99.90;;;;;;5080562;28;20420;-48
2021/10/06 07:51:39;;;;;;;9.53;5.03;;;17.90;99.90;;;;;;5076687;28;20453;-47
2021/10/06 07:54:07;;;;;;;7.77;6.30;;;18.00;99.90;;;;;;5068889;28;20413;-45
2021/10/06 07:56:34;;;;;;;6.17;5.57;;;18.00;99.90;;;;;;5076874;28;20786;-49
2021/10/06 07:59:01;;;;;;;6.23;5.50;;;18.00;99.90;;;;;;5079626;28;20413;-44
2021/10/06 08:01:28;;;;;;;7.80;7.07;;;18.10;99.90;;;;;;5068444;28;20448;-44
2021/10/06 08:04:15;;;;;;;5.93;5.30;;;18.00;99.90;;;;;;5067693;28;20411;-44
2021/10/06 08:06:42;;;;;;;6.47;5.40;;;18.10;99.90;;;;;;5075528;28;20604;-54
2021/10/06 08:09:10;;;;;;;6.73;5.80;;;18.40;99.90;;;;;;5063702;28;20417;-43
2021/10/06 08:11:37;;;;;;;5.37;4.87;;;18.60;99.90;;;;;;5072207;28;20446;-47
2021/10/06 08:14:04;;;;;;;5.47;5.07;;;19.00;99.90;;;;;;5065722;28;20496;-43
2021/10/06 08:16:31;;;;;;;6.43;5.07;;;19.10;99.90;;;;;;5065786;28;20602;-48
2021/10/06 08:18:59;;;;;;;4.37;3.97;;;19.20;99.90;;;;;;5062654;28;20482;-46
2021/10/06 08:21:26;;;;;;;6.70;6.10;;;19.50;99.90;;;;;;5068963;28;20435;-48
2021/10/06 08:23:53;;;;;;;6.73;6.10;;;19.40;99.90;;;;;;5075151;28;20504;-46
2021/10/06 08:26:20;;;;;;;6.53;4.97;;;19.30;99.90;;;;;;5067900;28;20439;-51
2021/10/06 08:28:47;;;;;;;5.70;5.17;;;19.50;99.90;;;;;;5070376;28;20738;-45
2021/10/06 08:31:14;;;;;;;8.70;5.97;;;19.40;99.90;;;;;;5075998;28;20702;-49
2021/10/06 08:33:42;;;;;;;5.37;4.93;;;19.50;99.90;;;;;;5061427;28;20766;-40
2021/10/06 08:36:09;;;;;;;6.17;5.33;;;19.20;99.90;;;;;;5078228;28;20413;-46
2021/10/06 08:38:37;;;;;;;8.50;6.07;;;19.40;99.90;;;;;;5081466;28;20432;-48
2021/10/06 08:41:05;;;;;;;7.40;5.80;;;19.50;99.90;;;;;;5064470;28;20474;-45
2021/10/06 08:43:32;;;;;;;7.47;6.70;;;19.50;99.90;;;;;;5068103;28;20429;-51
2021/10/06 08:45:59;;;;;;;5.80;5.30;;;19.60;99.90;;;;;;5064245;28;20775;-49
2021/10/06 08:48:28;;;;;;;4.67;4.23;;;19.60;99.90;;;;;;5065495;28;20435;-48
2021/10/06 08:50:55;;;;;;;5.47;4.97;;;19.60;99.90;;;;;;5081093;28;20474;-43
2021/10/06 08:53:42;;;;;;;7.70;5.53;;;19.60;99.90;;;;;;5064020;28;20576;-52
2021/10/06 08:56:09;;;;;;;5.47;4.93;;;19.50;99.90;;;;;;5071916;28;20439;-42
2021/10/06 08:58:37;;;;;;;5.00;4.30;;;19.20;99.90;;;;;;5067086;28;20509;-47
2021/10/06 09:01:04;;;;;;;5.70;5.17;;;19.00;99.90;;;;;;5068873;28;20644;-45
2021/10/06 09:03:35;;;;;;;6.40;5.80;;;18.80;99.90;;;;;;5061317;28;20665;-48
2021/10/06 09:06:12;;;;;;;9.27;6.23;;;18.80;99.90;;;;;;5066002;28;20420;-48
2021/10/06 09:08:44;;;;;;;7.00;5.20;;;19.00;99.90;;;;;;5068753;28;20598;-45
2021/10/06 09:11:13;;;;;;;5.30;4.83;;;19.00;99.90;;;;;;5067782;28;20748;-49
2021/10/06 09:13:44;;;;;;;6.17;5.67;;;19.10;99.90;;;;;;5074214;28;20460;-48
2021/10/06 09:16:16;;;;;;;6.40;5.27;;;19.10;99.90;;;;;;5064601;28;20435;-47
2021/10/06 09:18:43;;;;;;;6.03;5.50;;;19.10;99.90;;;;;;5060752;28;20415;-47
2021/10/06 09:21:10;;;;;;;6.33;5.60;;;19.30;99.90;;;;;;5077725;28;20789;-50
2021/10/06 09:23:40;;;;;;;7.90;4.57;;;19.40;99.90;;;;;;5071917;28;20509;-49
2021/10/06 09:26:10;;;;;;;4.83;4.43;;;19.50;99.90;;;;;;5078963;28;20770;-46
2021/10/06 09:28:41;;;;;;;6.57;5.67;;;19.50;99.90;;;;;;5064730;28;20462;-46
2021/10/06 09:31:14;;;;;;;4.60;4.20;;;19.40;99.90;;;;;;5075502;28;20491;-48
2021/10/06 09:33:41;;;;;;;4.43;4.03;;;19.40;99.90;;;;;;5063992;28;20475;-48
2021/10/06 09:36:31;;;;;;;5.03;4.63;;;19.40;99.90;;;;;;5062996;28;20413;-45
2021/10/06 09:39:02;;;;;;;7.23;5.67;;;19.40;99.90;;;;;;5067702;28;20513;-45
2021/10/06 09:41:42;;;;;;;7.00;5.00;;;19.50;99.90;;;;;;5060345;28;20747;-45
2021/10/06 09:44:17;;;;;;;9.73;5.97;;;19.60;99.90;;;;;;5061242;28;20422;-43
2021/10/06 09:46:55;;;;;;;5.87;5.13;;;19.80;99.90;;;;;;5074393;28;20475;-43
2021/10/06 09:49:33;;;;;;;10.70;7.50;;;19.70;99.90;;;;;;5060468;28;20410;-52
2021/10/06 09:52:22;;;;;;;5.33;3.83;;;19.70;99.90;;;;;;5075051;28;20495;-50
2021/10/06 09:54:52;;;;;;;6.10;3.57;;;19.30;99.90;;;;;;5072398;28;20414;-44
2021/10/06 09:57:36;;;;;;;3.23;3.03;;;19.30;99.90;;;;;;5070296;28;20398;-44
2021/10/06 10:00:09;;;;;;;3.53;3.23;;;19.20;99.90;;;;;;5075012;28;20583;-51
2021/10/06 10:02:37;;;;;;;3.40;3.10;;;19.10;99.90;;;;;;5070107;28;20512;-44
2021/10/06 10:05:06;;;;;;;7.77;4.07;;;19.10;99.90;;;;;;5070353;28;20463;-43
2021/10/06 10:07:33;;;;;;;3.63;3.33;;;19.10;99.90;;;;;;5070029;28;20413;-48
2021/10/06 10:10:01;;;;;;;3.37;3.10;;;19.00;99.90;;;;;;5070652;28;20480;-48
2021/10/06 10:12:30;;;;;;;3.53;3.23;;;18.90;99.90;;;;;;5076659;28;20525;-46
2021/10/06 10:14:58;;;;;;;3.77;3.33;;;18.90;99.90;;;;;;5072797;28;20789;-46
2021/10/06 10:17:26;;;;;;;3.70;3.40;;;19.00;99.90;;;;;;5066063;28;20481;-48
2021/10/06 10:19:56;;;;;;;5.00;3.67;;;19.00;99.90;;;;;;5063977;28;20492;-50
2021/10/06 10:22:32;;;;;;;3.63;3.43;;;18.90;99.90;;;;;;5062136;28;20482;-50
2021/10/06 10:25:19;;;;;;;3.40;3.10;;;18.90;99.90;;;;;;5059849;28;20766;-47
2021/10/06 10:28:00;;;;;;;4.10;3.80;;;18.80;99.90;;;;;;5064076;28;20410;-46
2021/10/06 10:30:29;;;;;;;4.40;4.07;;;18.90;99.90;;;;;;5080258;28;20418;-46
2021/10/06 10:32:57;;;;;;;3.63;3.07;;;18.80;99.90;;;;;;5064936;28;20482;-43
2021/10/06 10:35:37;;;;;;;4.30;3.90;;;19.10;99.90;;;;;;5067501;28;20414;-48
2021/10/06 10:38:07;;;;;;;4.33;3.97;;;19.10;99.90;;;;;;5084117;28;20518;-50
2021/10/06 10:40:40;;;;;;;7.00;3.87;;;19.10;99.90;;;;;;5070617;28;20439;-46
2021/10/06 10:43:30;;;;;;;5.40;3.90;;;19.30;99.90;;;;;;5068179;28;20823;-45
2021/10/06 10:46:09;;;;;;;3.37;3.10;;;19.10;99.90;;;;;;5060328;28;20642;-46
2021/10/06 10:49:06;;;;;;;3.73;2.87;;;19.30;99.90;;;;;;5065496;28;20791;-47
2021/10/06 10:51:46;;;;;;;5.93;3.57;;;19.40;99.90;;;;;;5072871;28;20721;-48
2021/10/06 10:54:30;;;;;;;5.57;3.60;;;19.80;99.90;;;;;;5066656;28;20435;-48
2021/10/06 10:57:03;;;;;;;4.23;3.60;;;20.10;99.90;;;;;;5064898;28;20446;-49
2021/10/06 10:59:42;;;;;;;4.50;4.17;;;20.00;99.90;;;;;;5063398;28;20459;-48
2021/10/06 11:02:23;;;;;;;5.00;4.60;;;19.50;99.90;;;;;;5067567;28;20798;-44
2021/10/06 11:04:59;;;;;;;4.60;4.20;;;19.60;99.90;;;;;;5068861;28;20403;-48
2021/10/06 11:07:27;;;;;;;4.70;4.40;;;19.70;99.90;;;;;;5062792;28;20440;-42
2021/10/06 11:09:57;;;;;;;5.33;4.80;;;19.80;99.90;;;;;;5067853;28;20403;-48
2021/10/06 11:12:24;;;;;;;4.33;3.93;;;20.00;99.90;;;;;;5077091;28;20461;-43
2021/10/06 11:15:22;;;;;;;3.90;3.60;;;19.90;99.90;;;;;;5071886;28;20441;-46
2021/10/06 11:18:13;;;;;;;4.07;3.77;;;20.50;99.90;;;;;;5083080;28;20435;-48
2021/10/06 11:20:53;;;;;;;4.00;3.70;;;20.60;99.90;;;;;;5082854;28;20731;-46
2021/10/06 11:23:35;;;;;;;4.50;4.10;;;20.50;99.90;;;;;;5071755;28;20418;-47
2021/10/06 11:26:13;;;;;;;3.57;3.33;;;20.30;99.90;;;;;;5067471;28;20453;-48
2021/10/06 11:28:45;;;;;;;4.23;3.97;;;20.00;99.90;;;;;;5073368;28;20435;-47
2021/10/06 11:31:15;;;;;;;4.30;3.90;;;19.80;99.90;;;;;;5071649;28;20665;-49
2021/10/06 11:33:42;;;;;;;4.33;4.03;;;19.30;99.90;;;;;;5072697;28;20459;-44
2021/10/06 11:36:22;;;;;;;4.00;3.80;;;18.90;99.90;;;;;;5072643;28;20419;-47
2021/10/06 11:39:08;;;;;;;6.63;4.30;;;18.90;99.90;;;;;;5069943;28;20413;-50
2021/10/06 11:41:40;;;;;;;10.80;4.97;;;19.00;99.90;;;;;;5069735;28;20423;-44
2021/10/06 11:44:08;;;;;;;5.77;4.37;;;19.40;99.90;;;;;;5072066;28;20623;-51
2021/10/06 11:46:35;;;;;;;5.63;5.07;;;19.60;99.90;;;;;;5068493;28;20741;-48
2021/10/06 11:49:06;;;;;;;9.87;5.30;;;19.30;99.90;;;;;;5082797;28;20456;-43
2021/10/06 11:51:51;;;;;;;4.47;4.07;;;19.60;99.90;;;;;;5077276;28;20483;-44
2021/10/06 11:54:22;;;;;;;4.37;3.97;;;19.70;99.90;;;;;;5066896;28;20771;-48
2021/10/06 11:56:51;;;;;;;5.07;4.63;;;19.40;99.90;;;;;;5069817;28;20505;-48
2021/10/06 11:59:26;;;;;;;4.40;4.10;;;19.30;99.90;;;;;;5069418;28;20439;-46
2021/10/06 12:01:58;;;;;;;4.53;4.23;;;19.20;99.90;;;;;;5067952;28;20465;-40
2021/10/06 12:04:35;;;;;;;4.63;4.23;;;19.20;99.90;;;;;;5077835;28;20444;-44
2021/10/06 12:07:03;;;;;;;3.80;3.60;;;19.10;99.90;;;;;;5058369;28;20404;-45
2021/10/06 12:09:35;;;;;;;5.07;4.70;;;19.20;99.90;;;;;;5077282;28;20437;-46
2021/10/06 12:12:22;;;;;;;4.63;4.10;;;19.10;99.90;;;;;;5075321;28;20468;-46
2021/10/06 12:14:57;;;;;;;6.17;5.23;;;19.00;99.90;;;;;;5062681;28;20640;-48
2021/10/06 12:17:26;;;;;;;3.33;3.13;;;18.90;99.90;;;;;;5076876;28;20427;-47
2021/10/06 12:20:07;;;;;;;5.03;4.53;;;18.80;99.90;;;;;;5073112;28;20436;-52
2021/10/06 12:22:49;;;;;;;5.13;4.67;;;18.80;99.90;;;;;;5052884;28;20761;-50
2021/10/06 12:25:19;;;;;;;8.03;5.63;;;18.90;99.90;;;;;;5069551;28;20410;-44
2021/10/06 12:28:06;;;;;;;5.47;4.90;;;19.00;99.90;;;;;;5065392;28;20719;-44
2021/10/06 12:30:36;;;;;;;4.40;4.00;;;19.10;99.90;;;;;;5068589;28;20432;-46
2021/10/06 12:33:07;;;;;;;3.40;3.20;;;19.00;99.90;;;;;;5064998;28;20464;-47
2021/10/06 12:35:39;;;;;;;4.03;3.63;;;18.70;99.90;;;;;;5066924;28;20643;-44
2021/10/06 12:38:07;;;;;;;3.33;3.13;;;18.60;99.90;;;;;;5074037;28;20789;-49
2021/10/06 12:40:40;;;;;;;3.77;3.47;;;18.60;99.90;;;;;;5078369;28;20425;-47
2021/10/06 12:43:15;;;;;;;3.17;3.00;;;18.60;99.90;;;;;;5075899;28;20476;-46
2021/10/06 12:46:05;;;;;;;3.80;3.50;;;18.70;99.90;;;;;;5077147;28;20470;-46
2021/10/06 12:48:36;;;;;;;5.70;3.90;;;18.70;99.90;;;;;;5077306;28;20480;-47
2021/10/06 12:51:10;;;;;;;3.80;3.50;;;18.50;99.90;;;;;;5079257;28;20737;-42
2021/10/06 12:53:57;;;;;;;4.13;3.83;;;18.30;99.90;;;;;;5078396;28;20815;-48
2021/10/06 12:56:47;;;;;;;4.23;3.93;;;18.00;99.90;;;;;;5076022;28;20412;-41
2021/10/06 12:59:15;;;;;;;3.20;2.97;;;17.70;99.90;;;;;;5071063;28;20452;-44